sensor_id;sensor_type;location;lat;lon;timestamp;temperature;humidity
44767;DHT22;30487;48.716;9.272;2023-02-10T00:01:46;0.70;96.80
44767;DHT22;30487;48.716;9.272;2023-02-10T00:04:14;0.60;97.10
44767;DHT22;30487;48.716;9.272;2023-02-10T00:06:40;0.70;97.50
44767;DHT22;30487;48.716;9.272;2023-02-10T00:09:06;0.60;97.60
44767;DHT22;30487;48.716;9.272;2023-02-10T00:11:32;0.60;97.80
44767;DHT22;30487;48.716;9.272;2023-02-10T00:14:18;0.70;97.90
44767;DHT22;30487;48.716;9.272;2023-02-10T00:16:44;0.60;98.10
44767;DHT22;30487;48.716;9.272;2023-02-10T00:19:10;0.60;98.40
44767;DHT22;30487;48.716;9.272;2023-02-10T00:21:36;0.50;98.70
44767;DHT22;30487;48.716;9.272;2023-02-10T00:24:02;0.50;98.90
44767;DHT22;30487;48.716;9.272;2023-02-10T00:26:28;0.50;99.00
44767;DHT22;30487;48.716;9.272;2023-02-10T00:28:53;0.50;99.10
44767;DHT22;30487;48.716;9.272;2023-02-10T00:31:19;0.50;99.10
44767;DHT22;30487;48.716;9.272;2023-02-10T00:33:45;0.50;99.10
44767;DHT22;30487;48.716;9.272;2023-02-10T00:36:12;0.40;99.30
44767;DHT22;30487;48.716;9.272;2023-02-10T00:38:39;0.40;99.70
44767;DHT22;30487;48.716;9.272;2023-02-10T00:41:06;0.40;99.80
44767;DHT22;30487;48.716;9.272;2023-02-10T00:43:33;0.30;99.90
44767;DHT22;30487;48.716;9.272;2023-02-10T00:45:59;0.30;99.90
44767;DHT22;30487;48.716;9.272;2023-02-10T00:48:24;0.30;99.90
44767;DHT22;30487;48.716;9.272;2023-02-10T00:50:50;0.30;99.90
44767;DHT22;30487;48.716;9.272;2023-02-10T00:53:16;0.30;99.90
44767;DHT22;30487;48.716;9.272;2023-02-10T00:55:41;0.30;99.90
44767;DHT22;30487;48.716;9.272;2023-02-10T00:58:07;0.20;99.90
44767;DHT22;30487;48.716;9.272;2023-02-10T01:00:32;0.20;99.90
44767;DHT22;30487;48.716;9.272;2023-02-10T01:02:58;0.10;99.90
44767;DHT22;30487;48.716;9.272;2023-02-10T01:05:24;0.10;99.90
44767;DHT22;30487;48.716;9.272;2023-02-10T01:07:49;0.00;99.90
44767;DHT22;30487;48.716;9.272;2023-02-10T01:10:15;-0.10;99.90
44767;DHT22;30487;48.716;9.272;2023-02-10T01:12:40;-0.10;99.90
44767;DHT22;30487;48.716;9.272;2023-02-10T01:15:06;0.00;99.90
44767;DHT22;30487;48.716;9.272;2023-02-10T01:17:32;0.00;99.90
44767;DHT22;30487;48.716;9.272;2023-02-10T01:19:57;0.00;99.90
44767;DHT22;30487;48.716;9.272;2023-02-10T01:22:23;0.00;99.90
44767;DHT22;30487;48.716;9.272;2023-02-10T01:24:49;0.10;99.90
44767;DHT22;30487;48.716;9.272;2023-02-10T01:27:14;0.00;99.90
44767;DHT22;30487;48.716;9.272;2023-02-10T01:29:40;0.00;99.90
44767;DHT22;30487;48.716;9.272;2023-02-10T01:32:05;0.00;99.90
44767;DHT22;30487;48.716;9.272;2023-02-10T01:34:31;0.00;99.90
44767;DHT22;30487;48.716;9.272;2023-02-10T01:36:57;-0.10;99.90
44767;DHT22;30487;48.716;9.272;2023-02-10T01:39:22;-0.10;99.90
44767;DHT22;30487;48.716;9.272;2023-02-10T01:41:48;-0.10;99.90
44767;DHT22;30487;48.716;9.272;2023-02-10T01:46:46;-0.10;99.90
44767;DHT22;30487;48.716;9.272;2023-02-10T01:49:15;-0.20;99.90
44767;DHT22;30487;48.716;9.272;2023-02-10T01:51:47;-0.20;99.90
44767;DHT22;30487;48.716;9.272;2023-02-10T01:54:18;-0.30;99.90
44767;DHT22;30487;48.716;9.272;2023-02-10T01:56:46;-0.30;99.90
44767;DHT22;30487;48.716;9.272;2023-02-10T01:59:13;-0.30;99.90
44767;DHT22;30487;48.716;9.272;2023-02-10T02:01:40;-0.30;99.90
44767;DHT22;30487;48.716;9.272;2023-02-10T02:04:05;-0.40;99.90
44767;DHT22;30487;48.716;9.272;2023-02-10T02:06:32;-0.40;99.90
44767;DHT22;30487;48.716;9.272;2023-02-10T02:08:58;-0.40;99.90
44767;DHT22;30487;48.716;9.272;2023-02-10T02:25:26;-0.50;99.90
44767;DHT22;30487;48.716;9.272;2023-02-10T02:33:52;-0.70;99.90
44767;DHT22;30487;48.716;9.272;2023-02-10T02:36:30;-0.70;99.90
44767;DHT22;30487;48.716;9.272;2023-02-10T02:39:02;-0.70;99.90
44767;DHT22;30487;48.716;9.272;2023-02-10T02:41:28;-0.70;99.90
44767;DHT22;30487;48.716;9.272;2023-02-10T02:43:55;-0.70;99.90
44767;DHT22;30487;48.716;9.272;2023-02-10T02:49:02;-0.70;99.90
44767;DHT22;30487;48.716;9.272;2023-02-10T02:51:39;-0.70;99.90
44767;DHT22;30487;48.716;9.272;2023-02-10T02:54:25;-0.70;99.90
44767;DHT22;30487;48.716;9.272;2023-02-10T02:57:20;-0.60;99.90
44767;DHT22;30487;48.716;9.272;2023-02-10T02:59:49;-0.60;99.90
44767;DHT22;30487;48.716;9.272;2023-02-10T03:02:17;-0.70;99.90
44767;DHT22;30487;48.716;9.272;2023-02-10T03:04:46;-0.70;99.90
44767;DHT22;30487;48.716;9.272;2023-02-10T03:07:13;-0.70;99.90
44767;DHT22;30487;48.716;9.272;2023-02-10T03:09:39;-0.70;99.90
44767;DHT22;30487;48.716;9.272;2023-02-10T03:12:05;-0.60;99.90
44767;DHT22;30487;48.716;9.272;2023-02-10T03:14:31;-0.50;99.90
44767;DHT22;30487;48.716;9.272;2023-02-10T03:16:57;-0.50;99.90
44767;DHT22;30487;48.716;9.272;2023-02-10T03:19:23;-0.50;99.90
44767;DHT22;30487;48.716;9.272;2023-02-10T03:21:48;-0.70;99.90
44767;DHT22;30487;48.716;9.272;2023-02-10T03:24:14;-0.80;99.90
44767;DHT22;30487;48.716;9.272;2023-02-10T03:26:42;-0.80;99.90
44767;DHT22;30487;48.716;9.272;2023-02-10T03:29:07;-0.90;99.90
44767;DHT22;30487;48.716;9.272;2023-02-10T03:31:33;-0.90;99.90
44767;DHT22;30487;48.716;9.272;2023-02-10T03:33:58;-0.90;99.90
44767;DHT22;30487;48.716;9.272;2023-02-10T03:36:24;-1.00;99.90
44767;DHT22;30487;48.716;9.272;2023-02-10T03:38:50;-1.00;99.90
44767;DHT22;30487;48.716;9.272;2023-02-10T03:41:15;-1.00;99.90
44767;DHT22;30487;48.716;9.272;2023-02-10T03:43:41;-1.00;99.90
44767;DHT22;30487;48.716;9.272;2023-02-10T03:46:08;-1.10;99.90
44767;DHT22;30487;48.716;9.272;2023-02-10T03:48:34;-1.10;99.90
44767;DHT22;30487;48.716;9.272;2023-02-10T03:51:03;-1.10;99.90
44767;DHT22;30487;48.716;9.272;2023-02-10T03:53:29;-1.20;99.90
44767;DHT22;30487;48.716;9.272;2023-02-10T03:55:55;-1.20;99.90
44767;DHT22;30487;48.716;9.272;2023-02-10T03:58:21;-1.10;99.90
44767;DHT22;30487;48.716;9.272;2023-02-10T04:00:47;-1.10;99.90
44767;DHT22;30487;48.716;9.272;2023-02-10T04:03:13;-1.10;99.90
44767;DHT22;30487;48.716;9.272;2023-02-10T04:05:39;-1.20;99.90
44767;DHT22;30487;48.716;9.272;2023-02-10T04:08:05;-1.20;99.90
44767;DHT22;30487;48.716;9.272;2023-02-10T04:10:31;-1.20;99.90
44767;DHT22;30487;48.716;9.272;2023-02-10T04:12:57;-1.20;99.90
44767;DHT22;30487;48.716;9.272;2023-02-10T04:15:22;-1.30;99.90
44767;DHT22;30487;48.716;9.272;2023-02-10T04:17:48;-1.30;99.90
44767;DHT22;30487;48.716;9.272;2023-02-10T04:20:15;-1.30;99.90
44767;DHT22;30487;48.716;9.272;2023-02-10T04:22:40;-1.30;99.90
44767;DHT22;30487;48.716;9.272;2023-02-10T04:25:06;-1.30;99.90
44767;DHT22;30487;48.716;9.272;2023-02-10T04:27:32;-1.30;99.90
44767;DHT22;30487;48.716;9.272;2023-02-10T04:29:57;-1.40;99.90
44767;DHT22;30487;48.716;9.272;2023-02-10T04:32:23;-1.40;99.90
44767;DHT22;30487;48.716;9.272;2023-02-10T04:34:49;-1.40;99.90
44767;DHT22;30487;48.716;9.272;2023-02-10T04:37:14;-1.40;99.90
44767;DHT22;30487;48.716;9.272;2023-02-10T04:39:40;-1.40;99.90
44767;DHT22;30487;48.716;9.272;2023-02-10T04:42:05;-1.30;99.90
44767;DHT22;30487;48.716;9.272;2023-02-10T04:44:31;-1.30;99.90
44767;DHT22;30487;48.716;9.272;2023-02-10T04:46:57;-1.30;99.90
44767;DHT22;30487;48.716;9.272;2023-02-10T04:49:24;-1.40;99.90
44767;DHT22;30487;48.716;9.272;2023-02-10T04:51:49;-1.40;99.90
44767;DHT22;30487;48.716;9.272;2023-02-10T04:54:15;-1.40;99.90
44767;DHT22;30487;48.716;9.272;2023-02-10T04:56:40;-1.40;99.90
44767;DHT22;30487;48.716;9.272;2023-02-10T04:59:06;-1.40;99.90
44767;DHT22;30487;48.716;9.272;2023-02-10T05:01:32;-1.40;99.90
44767;DHT22;30487;48.716;9.272;2023-02-10T05:03:57;-1.50;99.90
44767;DHT22;30487;48.716;9.272;2023-02-10T05:06:23;-1.40;99.90
44767;DHT22;30487;48.716;9.272;2023-02-10T05:08:49;-1.50;99.90
44767;DHT22;30487;48.716;9.272;2023-02-10T05:11:15;-1.50;99.90
44767;DHT22;30487;48.716;9.272;2023-02-10T05:13:42;-1.50;99.90
44767;DHT22;30487;48.716;9.272;2023-02-10T05:16:10;-1.50;99.90
44767;DHT22;30487;48.716;9.272;2023-02-10T05:18:36;-1.60;99.90
44767;DHT22;30487;48.716;9.272;2023-02-10T05:21:03;-1.60;99.90
44767;DHT22;30487;48.716;9.272;2023-02-10T05:23:29;-1.60;99.90
44767;DHT22;30487;48.716;9.272;2023-02-10T05:25:55;-1.60;99.90
44767;DHT22;30487;48.716;9.272;2023-02-10T05:28:21;-1.60;99.90
44767;DHT22;30487;48.716;9.272;2023-02-10T05:30:47;-1.60;99.90
44767;DHT22;30487;48.716;9.272;2023-02-10T05:33:13;-1.60;99.90
44767;DHT22;30487;48.716;9.272;2023-02-10T05:35:39;-1.70;99.90
44767;DHT22;30487;48.716;9.272;2023-02-10T05:38:05;-1.60;99.90
44767;DHT22;30487;48.716;9.272;2023-02-10T05:40:31;-1.60;99.90
44767;DHT22;30487;48.716;9.272;2023-02-10T05:42:57;-1.70;99.90
44767;DHT22;30487;48.716;9.272;2023-02-10T05:45:22;-1.70;99.90
44767;DHT22;30487;48.716;9.272;2023-02-10T05:47:49;-1.70;99.90
44767;DHT22;30487;48.716;9.272;2023-02-10T05:50:14;-1.70;99.90
44767;DHT22;30487;48.716;9.272;2023-02-10T05:52:40;-1.80;99.90
44767;DHT22;30487;48.716;9.272;2023-02-10T05:55:06;-1.70;99.90
44767;DHT22;30487;48.716;9.272;2023-02-10T05:57:32;-1.80;99.90
44767;DHT22;30487;48.716;9.272;2023-02-10T05:59:57;-1.80;99.90
44767;DHT22;30487;48.716;9.272;2023-02-10T06:02:23;-1.80;99.90
44767;DHT22;30487;48.716;9.272;2023-02-10T06:04:48;-1.70;99.90
44767;DHT22;30487;48.716;9.272;2023-02-10T06:07:15;-1.70;99.90
44767;DHT22;30487;48.716;9.272;2023-02-10T06:09:41;-1.70;99.90
44767;DHT22;30487;48.716;9.272;2023-02-10T06:12:07;-1.70;99.90
44767;DHT22;30487;48.716;9.272;2023-02-10T06:14:33;-1.70;99.90
44767;DHT22;30487;48.716;9.272;2023-02-10T06:16:58;-1.70;99.90
44767;DHT22;30487;48.716;9.272;2023-02-10T06:19:24;-1.80;99.90
44767;DHT22;30487;48.716;9.272;2023-02-10T06:21:49;-1.80;99.90
44767;DHT22;30487;48.716;9.272;2023-02-10T06:24:15;-1.80;99.90
44767;DHT22;30487;48.716;9.272;2023-02-10T06:26:41;-1.80;99.90
44767;DHT22;30487;48.716;9.272;2023-02-10T06:29:07;-1.80;99.90
44767;DHT22;30487;48.716;9.272;2023-02-10T06:31:32;-1.90;99.90
44767;DHT22;30487;48.716;9.272;2023-02-10T06:33:58;-1.80;99.90
44767;DHT22;30487;48.716;9.272;2023-02-10T06:36:24;-1.50;99.90
44767;DHT22;30487;48.716;9.272;2023-02-10T06:38:49;-1.40;99.90
44767;DHT22;30487;48.716;9.272;2023-02-10T06:41:15;-1.30;99.90
44767;DHT22;30487;48.716;9.272;2023-02-10T06:43:41;-1.30;99.90
44767;DHT22;30487;48.716;9.272;2023-02-10T06:46:07;-1.20;99.90
44767;DHT22;30487;48.716;9.272;2023-02-10T06:48:33;-1.40;99.90
44767;DHT22;30487;48.716;9.272;2023-02-10T06:50:59;-1.50;99.90
44767;DHT22;30487;48.716;9.272;2023-02-10T06:53:24;-1.50;99.90
44767;DHT22;30487;48.716;9.272;2023-02-10T06:55:50;-1.60;99.90
44767;DHT22;30487;48.716;9.272;2023-02-10T06:58:16;-1.60;99.90
44767;DHT22;30487;48.716;9.272;2023-02-10T07:00:42;-1.70;99.90
44767;DHT22;30487;48.716;9.272;2023-02-10T07:03:07;-1.70;99.90
44767;DHT22;30487;48.716;9.272;2023-02-10T07:05:33;-1.70;99.90
44767;DHT22;30487;48.716;9.272;2023-02-10T07:08:01;-1.70;99.90
44767;DHT22;30487;48.716;9.272;2023-02-10T07:10:29;-1.70;99.90
44767;DHT22;30487;48.716;9.272;2023-02-10T07:12:55;-1.70;99.90
44767;DHT22;30487;48.716;9.272;2023-02-10T07:15:21;-1.70;99.90
44767;DHT22;30487;48.716;9.272;2023-02-10T07:17:48;-1.60;99.90
44767;DHT22;30487;48.716;9.272;2023-02-10T07:20:14;-1.60;99.90
44767;DHT22;30487;48.716;9.272;2023-02-10T07:22:39;-1.60;99.90
44767;DHT22;30487;48.716;9.272;2023-02-10T07:25:05;-1.50;99.90
44767;DHT22;30487;48.716;9.272;2023-02-10T07:27:31;-1.50;99.90
44767;DHT22;30487;48.716;9.272;2023-02-10T07:29:56;-1.50;99.90
44767;DHT22;30487;48.716;9.272;2023-02-10T07:32:22;-1.50;99.90
44767;DHT22;30487;48.716;9.272;2023-02-10T07:34:47;-1.40;99.90
44767;DHT22;30487;48.716;9.272;2023-02-10T07:37:15;-1.40;99.90
44767;DHT22;30487;48.716;9.272;2023-02-10T07:39:40;-1.30;99.90
44767;DHT22;30487;48.716;9.272;2023-02-10T07:42:06;-1.20;99.90
44767;DHT22;30487;48.716;9.272;2023-02-10T07:44:32;-0.90;99.90
44767;DHT22;30487;48.716;9.272;2023-02-10T07:46:58;-0.80;99.90
44767;DHT22;30487;48.716;9.272;2023-02-10T07:49:23;-0.50;99.90
44767;DHT22;30487;48.716;9.272;2023-02-10T07:51:50;-0.30;99.90
44767;DHT22;30487;48.716;9.272;2023-02-10T07:54:16;-0.10;99.90
44767;DHT22;30487;48.716;9.272;2023-02-10T07:56:42;0.10;99.90
44767;DHT22;30487;48.716;9.272;2023-02-10T07:59:08;0.40;99.90
44767;DHT22;30487;48.716;9.272;2023-02-10T08:01:33;0.70;99.90
44767;DHT22;30487;48.716;9.272;2023-02-10T08:04:03;1.00;99.90
44767;DHT22;30487;48.716;9.272;2023-02-10T08:06:28;1.20;99.90
44767;DHT22;30487;48.716;9.272;2023-02-10T08:08:54;1.40;99.90
44767;DHT22;30487;48.716;9.272;2023-02-10T08:11:20;1.70;99.90
44767;DHT22;30487;48.716;9.272;2023-02-10T08:13:45;2.00;99.90
44767;DHT22;30487;48.716;9.272;2023-02-10T08:16:11;2.20;99.90
44767;DHT22;30487;48.716;9.272;2023-02-10T08:18:37;2.60;99.90
44767;DHT22;30487;48.716;9.272;2023-02-10T08:21:04;2.80;99.90
44767;DHT22;30487;48.716;9.272;2023-02-10T08:23:30;3.00;99.50
44767;DHT22;30487;48.716;9.272;2023-02-10T08:25:55;3.30;98.70
44767;DHT22;30487;48.716;9.272;2023-02-10T08:28:21;3.50;97.80
44767;DHT22;30487;48.716;9.272;2023-02-10T08:30:47;3.70;97.30
44767;DHT22;30487;48.716;9.272;2023-02-10T08:33:13;3.90;96.50
44767;DHT22;30487;48.716;9.272;2023-02-10T08:35:39;4.20;96.00
44767;DHT22;30487;48.716;9.272;2023-02-10T08:38:04;4.40;95.40
44767;DHT22;30487;48.716;9.272;2023-02-10T08:40:31;4.60;94.60
44767;DHT22;30487;48.716;9.272;2023-02-10T08:42:58;4.80;94.00
44767;DHT22;30487;48.716;9.272;2023-02-10T08:45:23;5.00;93.50
44767;DHT22;30487;48.716;9.272;2023-02-10T08:47:49;5.20;93.10
44767;DHT22;30487;48.716;9.272;2023-02-10T08:50:14;5.20;92.50
44767;DHT22;30487;48.716;9.272;2023-02-10T08:52:40;5.20;92.30
44767;DHT22;30487;48.716;9.272;2023-02-10T08:55:06;5.30;92.20
44767;DHT22;30487;48.716;9.272;2023-02-10T08:57:33;5.60;91.80
44767;DHT22;30487;48.716;9.272;2023-02-10T08:59:59;5.70;92.30
44767;DHT22;30487;48.716;9.272;2023-02-10T09:02:25;5.90;92.40
44767;DHT22;30487;48.716;9.272;2023-02-10T09:04:51;6.30;91.50
44767;DHT22;30487;48.716;9.272;2023-02-10T09:07:16;6.70;90.30
44767;DHT22;30487;48.716;9.272;2023-02-10T09:09:43;6.80;90.00
44767;DHT22;30487;48.716;9.272;2023-02-10T09:12:10;7.00;89.00
44767;DHT22;30487;48.716;9.272;2023-02-10T09:14:38;7.20;88.80
44767;DHT22;30487;48.716;9.272;2023-02-10T09:17:04;7.50;87.50
44767;DHT22;30487;48.716;9.272;2023-02-10T09:19:30;7.80;86.00
44767;DHT22;30487;48.716;9.272;2023-02-10T09:21:55;8.10;84.80
44767;DHT22;30487;48.716;9.272;2023-02-10T09:24:22;8.30;82.80
44767;DHT22;30487;48.716;9.272;2023-02-10T09:26:48;8.60;81.50
44767;DHT22;30487;48.716;9.272;2023-02-10T09:29:14;8.70;80.00
44767;DHT22;30487;48.716;9.272;2023-02-10T09:31:40;8.40;80.70
44767;DHT22;30487;48.716;9.272;2023-02-10T09:34:06;8.40;80.40
44767;DHT22;30487;48.716;9.272;2023-02-10T09:36:31;8.40;81.20
44767;DHT22;30487;48.716;9.272;2023-02-10T09:38:57;8.80;79.90
44767;DHT22;30487;48.716;9.272;2023-02-10T09:46:49;9.00;77.30
44767;DHT22;30487;48.716;9.272;2023-02-10T09:52:12;9.50;76.30
44767;DHT22;30487;48.716;9.272;2023-02-10T09:54:40;9.70;75.10
44767;DHT22;30487;48.716;9.272;2023-02-10T09:57:16;10.10;74.60
44767;DHT22;30487;48.716;9.272;2023-02-10T09:59:45;9.70;74.20
44767;DHT22;30487;48.716;9.272;2023-02-10T10:02:30;9.80;74.50
44767;DHT22;30487;48.716;9.272;2023-02-10T10:04:58;9.90;74.30
44767;DHT22;30487;48.716;9.272;2023-02-10T10:07:33;10.20;73.30
44767;DHT22;30487;48.716;9.272;2023-02-10T10:12:29;10.90;71.20
44767;DHT22;30487;48.716;9.272;2023-02-10T10:14:55;11.00;70.40
44767;DHT22;30487;48.716;9.272;2023-02-10T10:20:51;11.10;69.80
44767;DHT22;30487;48.716;9.272;2023-02-10T10:26:00;11.60;71.10
44767;DHT22;30487;48.716;9.272;2023-02-10T10:28:47;11.90;69.70
44767;DHT22;30487;48.716;9.272;2023-02-10T10:31:16;12.00;68.70
44767;DHT22;30487;48.716;9.272;2023-02-10T10:33:54;12.10;68.10
44767;DHT22;30487;48.716;9.272;2023-02-10T10:36:27;12.00;67.40
44767;DHT22;30487;48.716;9.272;2023-02-10T10:38:58;12.30;67.80
44767;DHT22;30487;48.716;9.272;2023-02-10T10:41:27;12.30;66.90
44767;DHT22;30487;48.716;9.272;2023-02-10T10:43:55;12.10;67.20
44767;DHT22;30487;48.716;9.272;2023-02-10T10:46:28;12.30;66.80
44767;DHT22;30487;48.716;9.272;2023-02-10T10:48:56;12.20;67.20
44767;DHT22;30487;48.716;9.272;2023-02-10T10:51:22;12.00;66.70
44767;DHT22;30487;48.716;9.272;2023-02-10T10:53:52;12.60;67.50
44767;DHT22;30487;48.716;9.272;2023-02-10T10:58:58;13.00;66.20
44767;DHT22;30487;48.716;9.272;2023-02-10T11:01:37;12.50;65.80
44767;DHT22;30487;48.716;9.272;2023-02-10T11:04:23;12.10;66.50
44767;DHT22;30487;48.716;9.272;2023-02-10T11:06:53;12.00;67.00
44767;DHT22;30487;48.716;9.272;2023-02-10T11:09:31;12.70;66.80
44767;DHT22;30487;48.716;9.272;2023-02-10T11:12:03;13.00;65.60
44767;DHT22;30487;48.716;9.272;2023-02-10T11:14:37;13.50;65.50
44767;DHT22;30487;48.716;9.272;2023-02-10T11:20:20;13.70;62.80
44767;DHT22;30487;48.716;9.272;2023-02-10T11:23:12;14.00;63.30
44767;DHT22;30487;48.716;9.272;2023-02-10T11:25:38;14.10;62.30
44767;DHT22;30487;48.716;9.272;2023-02-10T11:28:06;14.10;62.00
44767;DHT22;30487;48.716;9.272;2023-02-10T11:33:03;15.10;60.30
44767;DHT22;30487;48.716;9.272;2023-02-10T11:35:31;15.10;60.00
44767;DHT22;30487;48.716;9.272;2023-02-10T11:38:19;14.60;59.40
44767;DHT22;30487;48.716;9.272;2023-02-10T11:40:54;15.10;58.90
44767;DHT22;30487;48.716;9.272;2023-02-10T11:43:29;14.60;58.30
44767;DHT22;30487;48.716;9.272;2023-02-10T11:45:58;14.30;59.80
44767;DHT22;30487;48.716;9.272;2023-02-10T11:48:26;14.10;60.50
44767;DHT22;30487;48.716;9.272;2023-02-10T11:51:24;14.30;61.00
44767;DHT22;30487;48.716;9.272;2023-02-10T11:53:50;14.70;61.10
44767;DHT22;30487;48.716;9.272;2023-02-10T11:56:57;15.10;60.60
44767;DHT22;30487;48.716;9.272;2023-02-10T11:59:59;15.50;59.90
44767;DHT22;30487;48.716;9.272;2023-02-10T12:02:51;15.50;57.00
44767;DHT22;30487;48.716;9.272;2023-02-10T12:11:50;16.30;54.60
44767;DHT22;30487;48.716;9.272;2023-02-10T12:17:27;16.60;51.00
44767;DHT22;30487;48.716;9.272;2023-02-10T12:20:24;16.40;50.50
44767;DHT22;30487;48.716;9.272;2023-02-10T12:25:56;17.00;50.10
44767;DHT22;30487;48.716;9.272;2023-02-10T12:28:44;17.20;49.60
44767;DHT22;30487;48.716;9.272;2023-02-10T12:36:36;17.60;48.20
44767;DHT22;30487;48.716;9.272;2023-02-10T12:45:17;18.30;46.60
44767;DHT22;30487;48.716;9.272;2023-02-10T12:53:25;18.20;46.10
44767;DHT22;30487;48.716;9.272;2023-02-10T12:56:02;18.30;46.00
44767;DHT22;30487;48.716;9.272;2023-02-10T12:58:36;18.30;45.60
44767;DHT22;30487;48.716;9.272;2023-02-10T13:03:50;18.50;45.50
44767;DHT22;30487;48.716;9.272;2023-02-10T13:12:26;18.80;45.30
44767;DHT22;30487;48.716;9.272;2023-02-10T13:15:04;19.00;44.90
44767;DHT22;30487;48.716;9.272;2023-02-10T13:17:40;18.90;44.80
44767;DHT22;30487;48.716;9.272;2023-02-10T13:20:36;18.90;44.80
44767;DHT22;30487;48.716;9.272;2023-02-10T13:36:21;18.80;44.40
44767;DHT22;30487;48.716;9.272;2023-02-10T13:39:00;18.40;44.30
44767;DHT22;30487;48.716;9.272;2023-02-10T13:41:33;18.50;44.70
44767;DHT22;30487;48.716;9.272;2023-02-10T13:44:27;18.30;44.90
44767;DHT22;30487;48.716;9.272;2023-02-10T13:47:11;18.20;44.60
44767;DHT22;30487;48.716;9.272;2023-02-10T13:50:00;18.20;44.40
44767;DHT22;30487;48.716;9.272;2023-02-10T13:52:30;18.10;44.50
44767;DHT22;30487;48.716;9.272;2023-02-10T13:57:37;18.10;44.40
44767;DHT22;30487;48.716;9.272;2023-02-10T14:02:38;17.80;44.20
44767;DHT22;30487;48.716;9.272;2023-02-10T14:05:25;17.60;44.30
44767;DHT22;30487;48.716;9.272;2023-02-10T14:07:52;17.50;44.70
44767;DHT22;30487;48.716;9.272;2023-02-10T14:12:58;17.30;45.00
44767;DHT22;30487;48.716;9.272;2023-02-10T14:15:29;17.30;44.80
44767;DHT22;30487;48.716;9.272;2023-02-10T14:18:31;17.30;44.40
44767;DHT22;30487;48.716;9.272;2023-02-10T14:23:27;17.20;44.30
44767;DHT22;30487;48.716;9.272;2023-02-10T14:25:57;16.90;44.20
44767;DHT22;30487;48.716;9.272;2023-02-10T14:28:28;16.90;44.40
44767;DHT22;30487;48.716;9.272;2023-02-10T14:31:00;16.60;44.60
44767;DHT22;30487;48.716;9.272;2023-02-10T14:33:29;16.60;45.10
44767;DHT22;30487;48.716;9.272;2023-02-10T14:36:02;16.40;44.40
44767;DHT22;30487;48.716;9.272;2023-02-10T14:38:30;16.10;44.40
44767;DHT22;30487;48.716;9.272;2023-02-10T14:40:58;16.10;44.80
44767;DHT22;30487;48.716;9.272;2023-02-10T14:43:27;16.30;44.90
44767;DHT22;30487;48.716;9.272;2023-02-10T14:45:54;16.40;44.50
44767;DHT22;30487;48.716;9.272;2023-02-10T14:48:22;16.10;44.70
44767;DHT22;30487;48.716;9.272;2023-02-10T14:51:17;16.00;45.80
44767;DHT22;30487;48.716;9.272;2023-02-10T14:53:43;15.70;45.70
44767;DHT22;30487;48.716;9.272;2023-02-10T14:56:18;15.70;45.30
44767;DHT22;30487;48.716;9.272;2023-02-10T14:58:44;15.80;45.30
44767;DHT22;30487;48.716;9.272;2023-02-10T15:03:40;15.10;45.40
44767;DHT22;30487;48.716;9.272;2023-02-10T15:06:07;14.80;45.70
44767;DHT22;30487;48.716;9.272;2023-02-10T15:08:43;14.70;46.40
44767;DHT22;30487;48.716;9.272;2023-02-10T15:11:20;14.70;46.20
44767;DHT22;30487;48.716;9.272;2023-02-10T15:14:12;14.40;46.40
44767;DHT22;30487;48.716;9.272;2023-02-10T15:16:40;14.00;47.80
44767;DHT22;30487;48.716;9.272;2023-02-10T15:19:10;13.90;47.70
44767;DHT22;30487;48.716;9.272;2023-02-10T15:21:37;13.70;47.70
44767;DHT22;30487;48.716;9.272;2023-02-10T15:24:04;13.50;47.80
44767;DHT22;30487;48.716;9.272;2023-02-10T15:26:33;13.20;48.20
44767;DHT22;30487;48.716;9.272;2023-02-10T15:29:09;13.10;48.50
44767;DHT22;30487;48.716;9.272;2023-02-10T15:31:35;12.90;49.00
44767;DHT22;30487;48.716;9.272;2023-02-10T15:34:03;12.90;49.10
44767;DHT22;30487;48.716;9.272;2023-02-10T15:37:02;12.50;49.00
44767;DHT22;30487;48.716;9.272;2023-02-10T15:39:34;12.30;49.60
44767;DHT22;30487;48.716;9.272;2023-02-10T15:44:43;11.90;50.10
44767;DHT22;30487;48.716;9.272;2023-02-10T15:49:44;11.30;51.20
44767;DHT22;30487;48.716;9.272;2023-02-10T15:52:17;11.20;51.60
44767;DHT22;30487;48.716;9.272;2023-02-10T15:54:44;10.90;51.90
44767;DHT22;30487;48.716;9.272;2023-02-10T15:57:11;10.60;52.50
44767;DHT22;30487;48.716;9.272;2023-02-10T15:59:37;10.40;53.10
44767;DHT22;30487;48.716;9.272;2023-02-10T16:02:05;10.00;53.80
44767;DHT22;30487;48.716;9.272;2023-02-10T16:04:33;9.80;54.40
44767;DHT22;30487;48.716;9.272;2023-02-10T16:07:00;9.40;54.80
44767;DHT22;30487;48.716;9.272;2023-02-10T16:09:26;9.10;55.40
44767;DHT22;30487;48.716;9.272;2023-02-10T16:11:52;9.00;55.90
44767;DHT22;30487;48.716;9.272;2023-02-10T16:14:18;8.80;56.20
44767;DHT22;30487;48.716;9.272;2023-02-10T16:16:49;8.60;56.20
44767;DHT22;30487;48.716;9.272;2023-02-10T16:19:18;8.50;56.40
44767;DHT22;30487;48.716;9.272;2023-02-10T16:21:44;8.30;57.10
44767;DHT22;30487;48.716;9.272;2023-02-10T16:24:29;8.10;56.70
44767;DHT22;30487;48.716;9.272;2023-02-10T16:26:55;8.00;57.20
44767;DHT22;30487;48.716;9.272;2023-02-10T16:29:26;7.90;57.60
44767;DHT22;30487;48.716;9.272;2023-02-10T16:31:52;8.00;57.70
44767;DHT22;30487;48.716;9.272;2023-02-10T16:34:18;7.90;57.80
44767;DHT22;30487;48.716;9.272;2023-02-10T16:36:44;7.90;57.80
44767;DHT22;30487;48.716;9.272;2023-02-10T16:39:21;7.80;58.00
44767;DHT22;30487;48.716;9.272;2023-02-10T16:41:50;7.70;58.20
44767;DHT22;30487;48.716;9.272;2023-02-10T16:44:16;7.60;58.40
44767;DHT22;30487;48.716;9.272;2023-02-10T16:46:43;7.60;58.60
44767;DHT22;30487;48.716;9.272;2023-02-10T16:49:11;7.50;58.70
44767;DHT22;30487;48.716;9.272;2023-02-10T16:51:37;7.30;58.70
44767;DHT22;30487;48.716;9.272;2023-02-10T16:54:02;7.20;59.30
44767;DHT22;30487;48.716;9.272;2023-02-10T16:56:38;7.10;59.70
44767;DHT22;30487;48.716;9.272;2023-02-10T16:59:05;7.10;60.00
44767;DHT22;30487;48.716;9.272;2023-02-10T17:01:31;7.00;60.00
44767;DHT22;30487;48.716;9.272;2023-02-10T17:03:57;7.10;60.10
44767;DHT22;30487;48.716;9.272;2023-02-10T17:06:24;6.90;59.80
44767;DHT22;30487;48.716;9.272;2023-02-10T17:08:50;6.80;60.40
44767;DHT22;30487;48.716;9.272;2023-02-10T17:11:16;6.80;60.30
44767;DHT22;30487;48.716;9.272;2023-02-10T17:13:42;6.70;60.40
44767;DHT22;30487;48.716;9.272;2023-02-10T17:16:22;6.60;60.80
44767;DHT22;30487;48.716;9.272;2023-02-10T17:18:49;6.50;61.10
44767;DHT22;30487;48.716;9.272;2023-02-10T17:21:15;6.40;60.90
44767;DHT22;30487;48.716;9.272;2023-02-10T17:23:40;6.30;61.00
44767;DHT22;30487;48.716;9.272;2023-02-10T17:26:10;6.30;61.00
44767;DHT22;30487;48.716;9.272;2023-02-10T17:28:36;6.20;61.00
44767;DHT22;30487;48.716;9.272;2023-02-10T17:31:02;6.20;61.20
44767;DHT22;30487;48.716;9.272;2023-02-10T17:33:27;6.10;61.20
44767;DHT22;30487;48.716;9.272;2023-02-10T17:35:53;6.10;61.50
44767;DHT22;30487;48.716;9.272;2023-02-10T17:38:19;6.00;61.60
44767;DHT22;30487;48.716;9.272;2023-02-10T17:41:06;6.00;61.90
44767;DHT22;30487;48.716;9.272;2023-02-10T17:43:31;5.90;61.90
44767;DHT22;30487;48.716;9.272;2023-02-10T17:45:57;5.90;62.20